createdAt,value
2023-04-11T00:01:39.507Z,8.66
2023-04-11T00:04:08.010Z,8.62
2023-04-11T00:06:36.574Z,8.56
2023-04-11T00:09:05.073Z,8.52
2023-04-11T00:11:33.181Z,8.48
2023-04-11T00:14:01.246Z,8.45
2023-04-11T00:16:29.659Z,8.46
2023-04-11T00:18:57.921Z,8.47
2023-04-11T00:21:26.295Z,8.45
2023-04-11T00:23:55.484Z,8.46
2023-04-11T00:26:23.827Z,8.46
2023-04-11T00:28:51.957Z,8.45
2023-04-11T00:31:20.182Z,8.44
2023-04-11T00:33:48.303Z,8.43
2023-04-11T00:36:16.640Z,8.40
2023-04-11T00:38:46.507Z,8.41
2023-04-11T00:41:14.656Z,8.41
2023-04-11T00:43:43.488Z,8.39
2023-04-11T00:46:11.914Z,8.40
2023-04-11T00:48:40.294Z,8.40
2023-04-11T00:51:08.709Z,8.41
2023-04-11T00:53:37.838Z,8.43
2023-04-11T00:56:07.115Z,8.44
2023-04-11T00:58:37.812Z,8.45
2023-04-11T01:01:09.258Z,8.48
2023-04-11T01:03:39.802Z,8.48
2023-04-11T01:06:11.219Z,8.48
2023-04-11T01:08:42.601Z,8.48
2023-04-11T01:11:12.889Z,8.48
2023-04-11T01:13:41.968Z,8.48
2023-04-11T01:16:10.791Z,8.48
2023-04-11T01:18:39.126Z,8.48
2023-04-11T01:21:07.884Z,8.48
2023-04-11T01:23:36.125Z,8.48
2023-04-11T01:26:04.376Z,8.46
2023-04-11T01:28:32.580Z,8.47
2023-04-11T01:31:01.982Z,8.46
2023-04-11T01:33:30.626Z,8.44
2023-04-11T01:35:58.852Z,8.41
2023-04-11T01:38:27.036Z,8.39
2023-04-11T01:40:57.541Z,8.40
2023-04-11T01:43:25.737Z,8.39
2023-04-11T01:45:54.119Z,8.38
2023-04-11T01:48:22.862Z,8.39
2023-04-11T01:50:52.061Z,8.39
2023-04-11T01:53:20.113Z,8.40
2023-04-11T01:55:48.370Z,8.39
2023-04-11T01:58:16.513Z,8.37
2023-04-11T02:00:44.750Z,8.35
2023-04-11T02:03:13.135Z,8.34
2023-04-11T02:05:42.935Z,8.32
2023-04-11T02:08:11.432Z,8.29
2023-04-11T02:10:39.589Z,8.28
2023-04-11T02:13:07.807Z,8.27
2023-04-11T02:15:35.923Z,8.28
2023-04-11T02:18:04.305Z,8.29
2023-04-11T02:20:32.591Z,8.31
2023-04-11T02:23:04.564Z,8.32
2023-04-11T02:25:33.269Z,8.33
2023-04-11T02:28:01.387Z,8.35
2023-04-11T02:30:29.565Z,8.37
2023-04-11T02:32:57.643Z,8.39
2023-04-11T02:35:26.306Z,8.41
2023-04-11T02:37:54.640Z,8.43
2023-04-11T02:40:22.752Z,8.43
2023-04-11T02:42:50.878Z,8.45
2023-04-11T02:45:19.366Z,8.44
2023-04-11T02:47:47.503Z,8.41
2023-04-11T02:50:16.228Z,8.39
2023-04-11T02:52:49.518Z,8.36
2023-04-11T02:55:20.032Z,8.31
2023-04-11T02:57:48.102Z,8.24
2023-04-11T03:00:20.236Z,8.19
2023-04-11T03:02:57.545Z,8.14
2023-04-11T03:05:26.382Z,8.10
2023-04-11T03:07:55.056Z,8.07
2023-04-11T03:10:26.168Z,8.01
2023-04-11T03:12:54.952Z,7.95
2023-04-11T03:15:23.193Z,7.89
2023-04-11T03:17:51.486Z,7.83
2023-04-11T03:20:20.328Z,7.80
2023-04-11T03:22:54.048Z,7.76
2023-04-11T03:25:22.814Z,7.70
2023-04-11T03:27:52.143Z,7.65
2023-04-11T03:30:20.327Z,7.62
2023-04-11T03:32:49.251Z,7.59
2023-04-11T03:35:18.910Z,7.55
2023-04-11T03:37:48.237Z,7.53
2023-04-11T03:40:18.632Z,7.49
2023-04-11T03:42:51.119Z,7.46
2023-04-11T03:45:22.466Z,7.44
2023-04-11T03:47:51.464Z,7.41
2023-04-11T03:50:20.649Z,7.40
2023-04-11T03:52:50.163Z,7.39
2023-04-11T03:55:18.751Z,7.36
2023-04-11T03:57:47.034Z,7.31
2023-04-11T04:00:15.933Z,7.23
2023-04-11T04:02:49.467Z,7.19
2023-04-11T04:05:17.819Z,7.14
2023-04-11T04:07:45.957Z,7.07
2023-04-11T04:10:21.399Z,7.03
2023-04-11T04:12:53.424Z,7.02
2023-04-11T04:15:25.216Z,7.02
2023-04-11T04:17:54.083Z,7.04
2023-04-11T04:20:28.748Z,7.05
2023-04-11T04:23:00.289Z,7.06
2023-04-11T04:25:42.260Z,7.10
2023-04-11T04:28:11.583Z,7.14
2023-04-11T04:30:40.833Z,7.16
2023-04-11T04:33:12.489Z,7.15
2023-04-11T04:35:43.172Z,7.15
2023-04-11T04:38:18.135Z,7.16
2023-04-11T04:40:54.779Z,7.14
2023-04-11T04:43:24.639Z,7.13
2023-04-11T04:46:15.769Z,7.09
2023-04-11T04:48:48.022Z,7.10
2023-04-11T04:51:16.185Z,7.13
2023-04-11T04:53:44.369Z,7.15
2023-04-11T04:56:12.696Z,7.17
2023-04-11T04:58:45.451Z,7.16
2023-04-11T05:01:14.152Z,7.17
2023-04-11T05:13:47.797Z,7.19
2023-04-11T05:16:18.335Z,7.20
2023-04-11T05:18:47.022Z,7.24
2023-04-11T05:21:15.788Z,7.28
2023-04-11T05:23:45.598Z,7.31
2023-04-11T05:26:13.957Z,7.35
2023-04-11T05:28:42.553Z,7.41
2023-04-11T05:31:13.809Z,7.46
2023-04-11T05:33:43.274Z,7.50
2023-04-11T05:36:14.535Z,7.56
2023-04-11T05:38:44.420Z,7.61
2023-04-11T05:41:13.076Z,7.65
2023-04-11T05:43:41.145Z,7.69
2023-04-11T05:46:10.752Z,7.71
2023-04-11T05:48:39.576Z,7.74
2023-04-11T05:51:08.133Z,7.77
2023-04-11T05:53:36.342Z,7.79
2023-04-11T05:56:04.791Z,7.82
2023-04-11T05:58:34.258Z,7.84
2023-04-11T06:01:02.378Z,7.87
2023-04-11T06:03:30.743Z,7.91
2023-04-11T06:06:00.422Z,7.95
2023-04-11T06:08:28.801Z,7.98
2023-04-11T06:10:56.874Z,8.02
2023-04-11T06:13:26.110Z,8.06
2023-04-11T06:15:54.896Z,8.10
2023-04-11T06:18:23.007Z,8.15
2023-04-11T06:20:51.184Z,8.21
2023-04-11T06:23:19.450Z,8.28
2023-04-11T06:25:47.664Z,8.36
2023-04-11T06:28:15.840Z,8.43
2023-04-11T06:30:44.095Z,8.51
2023-04-11T06:33:12.466Z,8.58
2023-04-11T06:35:41.051Z,8.65
2023-04-11T06:38:09.425Z,8.71
2023-04-11T06:40:37.719Z,8.79
2023-04-11T06:43:06.013Z,8.85
2023-04-11T06:45:34.325Z,8.93
2023-04-11T06:48:02.425Z,8.99
2023-04-11T06:50:30.869Z,9.06
2023-04-11T06:52:59.753Z,9.12
2023-04-11T06:55:27.880Z,9.19
2023-04-11T06:57:56.023Z,9.25
2023-04-11T07:00:24.965Z,9.30
2023-04-11T07:02:53.301Z,9.36
2023-04-11T07:05:21.706Z,9.41
2023-04-11T07:07:50.239Z,9.46
2023-04-11T07:10:18.293Z,9.51
2023-04-11T07:12:46.393Z,9.55
2023-04-11T07:15:15.112Z,9.60
2023-04-11T07:17:43.492Z,9.64
2023-04-11T07:20:12.516Z,9.69
2023-04-11T07:22:43.486Z,9.73
2023-04-11T07:25:11.683Z,9.78
2023-04-11T07:27:43.876Z,9.82
2023-04-11T07:30:12.904Z,9.87
2023-04-11T07:32:40.994Z,9.91
2023-04-11T07:35:10.247Z,9.95
2023-04-11T07:37:38.404Z,10.00
2023-04-11T07:40:10.776Z,10.05
2023-04-11T07:42:39.382Z,10.10
2023-04-11T07:45:08.364Z,10.15
2023-04-11T07:47:36.490Z,10.21
2023-04-11T07:50:05.490Z,10.28
2023-04-11T07:52:33.891Z,10.35
2023-04-11T07:55:04.803Z,10.42
2023-04-11T07:57:33.236Z,10.48
2023-04-11T08:00:01.916Z,10.53
2023-04-11T08:02:41.229Z,10.60
2023-04-11T08:05:10.119Z,10.67
2023-04-11T08:07:38.503Z,10.75
2023-04-11T08:10:07.851Z,10.83
2023-04-11T08:12:36.050Z,10.91
2023-04-11T08:15:05.089Z,10.99
2023-04-11T08:17:38.253Z,11.06
2023-04-11T08:20:10.548Z,11.12
2023-04-11T08:22:39.776Z,11.20
2023-04-11T08:25:09.980Z,11.27
2023-04-11T08:27:39.160Z,11.33
2023-04-11T08:30:08.625Z,11.39
2023-04-11T08:32:37.447Z,11.46
2023-04-11T08:35:06.054Z,11.53
2023-04-11T08:37:34.844Z,11.61
2023-04-11T08:40:07.113Z,11.69
2023-04-11T08:42:35.833Z,11.77
2023-04-11T08:45:08.864Z,11.85
2023-04-11T08:47:37.512Z,11.95
2023-04-11T08:50:06.945Z,12.03
2023-04-11T08:52:38.004Z,12.11
2023-04-11T08:55:07.096Z,12.20
2023-04-11T08:57:38.214Z,12.29
2023-04-11T09:00:19.488Z,12.36
2023-04-11T09:03:01.061Z,12.43
2023-04-11T09:05:32.559Z,12.50
2023-04-11T09:08:03.820Z,12.56
2023-04-11T09:10:32.321Z,12.63
2023-04-11T09:13:02.393Z,12.68
2023-04-11T09:15:31.755Z,12.75
2023-04-11T09:18:01.061Z,12.80
2023-04-11T09:20:31.248Z,12.86
2023-04-11T09:22:59.422Z,12.92
2023-04-11T09:25:28.466Z,12.95
2023-04-11T09:28:10.484Z,12.98
2023-04-11T09:30:38.748Z,13.00
2023-04-11T09:33:22.856Z,13.03
2023-04-11T09:35:54.281Z,13.04
2023-04-11T09:38:30.978Z,13.08
2023-04-11T09:41:00.766Z,13.13
2023-04-11T09:43:51.881Z,13.20
2023-04-11T09:46:21.375Z,13.28
2023-04-11T09:48:51.292Z,13.37
2023-04-11T09:53:52.450Z,13.54
2023-04-11T09:56:20.575Z,13.64
2023-04-11T09:58:49.933Z,13.74
2023-04-11T10:01:20.087Z,13.80
2023-04-11T10:03:51.187Z,13.86
2023-04-11T10:06:31.864Z,13.90
2023-04-11T10:09:11.870Z,13.93
2023-04-11T10:11:44.715Z,13.93
2023-04-11T10:14:37.947Z,13.95
2023-04-11T10:17:14.615Z,13.97
2023-04-11T10:19:44.858Z,13.98
2023-04-11T10:22:41.894Z,14.01
2023-04-11T10:25:25.002Z,14.06
2023-04-11T10:28:02.083Z,14.12
2023-04-11T10:30:40.256Z,14.17
2023-04-11T10:33:38.164Z,14.21
2023-04-11T10:36:11.563Z,14.25
2023-04-11T10:38:49.206Z,14.29
2023-04-11T10:41:23.342Z,14.32
2023-04-11T10:43:52.380Z,14.36
2023-04-11T10:46:25.282Z,14.41
2023-04-11T10:49:04.672Z,14.46
2023-04-11T10:51:34.492Z,14.53
2023-04-11T10:54:03.093Z,14.59
2023-04-11T10:56:41.116Z,14.66
2023-04-11T10:59:31.397Z,14.71
2023-04-11T11:02:01.774Z,14.78
2023-04-11T11:04:32.365Z,14.85
2023-04-11T11:07:01.961Z,14.92
2023-04-11T11:09:31.338Z,14.98
2023-04-11T11:12:11.177Z,15.04
2023-04-11T11:14:42.174Z,15.10
2023-04-11T11:17:12.877Z,15.15
2023-04-11T11:19:48.642Z,15.18
2023-04-11T11:22:17.879Z,15.21
2023-04-11T11:24:45.980Z,15.19
2023-04-11T11:27:24.592Z,15.16
2023-04-11T11:29:53.534Z,15.12
2023-04-11T11:32:29.872Z,15.08
2023-04-11T11:34:58.952Z,15.07
2023-04-11T11:37:27.230Z,15.07
2023-04-11T11:39:55.703Z,15.07
2023-04-11T11:42:24.695Z,15.06
2023-04-11T11:44:52.964Z,15.06
2023-04-11T11:47:21.079Z,15.07
2023-04-11T11:49:54.623Z,15.06
2023-04-11T11:52:40.931Z,15.06
2023-04-11T11:55:18.412Z,15.09
2023-04-11T11:57:50.701Z,15.11
2023-04-11T12:00:27.323Z,15.14
2023-04-11T12:03:00.131Z,15.15
2023-04-11T12:05:35.022Z,15.14
2023-04-11T12:08:06.570Z,15.14
2023-04-11T12:10:42.766Z,15.14
2023-04-11T12:13:12.409Z,15.17
2023-04-11T12:15:43.502Z,15.20
2023-04-11T12:18:12.128Z,15.24
2023-04-11T12:20:40.734Z,15.25
2023-04-11T12:23:09.124Z,15.25
2023-04-11T12:25:37.591Z,15.27
2023-04-11T12:28:06.265Z,15.32
2023-04-11T12:30:34.405Z,15.38
2023-04-11T12:33:02.766Z,15.46
2023-04-11T12:35:31.342Z,15.56
2023-04-11T12:37:59.784Z,15.67
2023-04-11T12:40:29.833Z,15.80
2023-04-11T12:42:58.773Z,15.93
2023-04-11T12:45:27.285Z,16.03
2023-04-11T12:47:55.528Z,16.12
2023-04-11T12:50:24.583Z,16.23
2023-04-11T12:52:53.469Z,16.34
2023-04-11T12:55:22.492Z,16.43
2023-04-11T12:57:50.729Z,16.45
2023-04-11T13:00:19.549Z,16.46
2023-04-11T13:02:48.829Z,16.45
2023-04-11T13:05:17.882Z,16.45
2023-04-11T13:07:46.735Z,16.45
2023-04-11T13:10:16.297Z,16.46
2023-04-11T13:12:45.744Z,16.44
2023-04-11T13:15:16.857Z,16.41
2023-04-11T13:17:45.826Z,16.38
2023-04-11T13:20:14.701Z,16.34
2023-04-11T13:22:43.389Z,16.30
2023-04-11T13:25:12.472Z,16.25
2023-04-11T13:27:41.806Z,16.22
2023-04-11T13:30:11.256Z,16.19
2023-04-11T13:32:39.626Z,16.16
2023-04-11T13:35:08.694Z,16.13
2023-04-11T13:37:37.153Z,16.07
2023-04-11T13:40:11.194Z,16.06
2023-04-11T13:42:39.869Z,16.09
2023-04-11T13:45:08.821Z,16.11
2023-04-11T13:47:38.737Z,16.10
2023-04-11T13:50:08.840Z,16.07
2023-04-11T13:52:37.950Z,16.05
2023-04-11T13:55:06.570Z,16.08
2023-04-11T13:57:35.081Z,16.07
2023-04-11T14:00:13.651Z,16.03
2023-04-11T14:02:43.148Z,15.99
2023-04-11T14:05:11.700Z,15.95
2023-04-11T14:07:41.456Z,15.91
2023-04-11T14:10:10.760Z,15.88
2023-04-11T14:12:39.401Z,15.84
2023-04-11T14:15:08.142Z,15.80
2023-04-11T14:17:36.418Z,15.72
2023-04-11T14:20:06.953Z,15.65
2023-04-11T14:22:35.988Z,15.56
2023-04-11T14:25:05.593Z,15.49
2023-04-11T14:27:33.622Z,15.40
2023-04-11T14:30:02.167Z,15.31
2023-04-11T14:32:30.745Z,15.21
2023-04-11T14:35:02.023Z,15.13
2023-04-11T14:37:32.088Z,15.03
2023-04-11T14:40:01.296Z,14.93
2023-04-11T14:42:29.703Z,14.87
2023-04-11T14:44:57.838Z,14.82
2023-04-11T14:47:26.214Z,14.75
2023-04-11T14:49:56.836Z,14.69
2023-04-11T14:52:24.953Z,14.62
2023-04-11T14:54:53.435Z,14.59
2023-04-11T14:57:22.771Z,14.54
2023-04-11T14:59:50.940Z,14.51
2023-04-11T15:02:19.284Z,14.50
2023-04-11T15:04:47.668Z,14.49
2023-04-11T15:07:16.445Z,14.48
2023-04-11T15:09:45.028Z,14.45
2023-04-11T15:12:13.058Z,14.42
2023-04-11T15:14:41.382Z,14.41
2023-04-11T15:17:09.482Z,14.43
2023-04-11T15:19:37.509Z,14.47
2023-04-11T15:22:05.755Z,14.52
2023-04-11T15:24:34.084Z,14.53
2023-04-11T15:27:02.170Z,14.53
2023-04-11T15:29:30.320Z,14.53
2023-04-11T15:32:02.736Z,14.53
2023-04-11T15:34:30.972Z,14.54
2023-04-11T15:36:59.934Z,14.55
2023-04-11T15:39:28.344Z,14.55
2023-04-11T15:41:56.484Z,14.55
2023-04-11T15:44:24.882Z,14.55
2023-04-11T15:46:53.088Z,14.55
2023-04-11T15:49:21.367Z,14.55
2023-04-11T15:51:49.762Z,14.55
2023-04-11T15:54:18.074Z,14.55
2023-04-11T15:56:46.486Z,14.54
2023-04-11T15:59:16.260Z,14.54
2023-04-11T16:01:44.508Z,14.54
2023-04-11T16:04:12.957Z,14.53
2023-04-11T16:06:41.321Z,14.53
2023-04-11T16:09:09.432Z,14.53
2023-04-11T16:11:39.963Z,14.53
2023-04-11T16:14:08.439Z,14.52
2023-04-11T16:16:36.495Z,14.51
2023-04-11T16:19:04.617Z,14.50
2023-04-11T16:21:32.882Z,14.51
2023-04-11T16:24:01.313Z,14.51
2023-04-11T16:26:29.429Z,14.51
2023-04-11T16:28:57.686Z,14.49
2023-04-11T16:31:26.099Z,14.49
2023-04-11T16:33:55.400Z,14.50
2023-04-11T16:36:24.368Z,14.50
2023-04-11T16:38:53.220Z,14.50
2023-04-11T16:41:21.858Z,14.50
2023-04-11T16:43:50.107Z,14.50
2023-04-11T16:46:18.691Z,14.48
2023-04-11T16:48:46.834Z,14.47
2023-04-11T16:51:18.698Z,14.45
2023-04-11T16:53:47.491Z,14.33
2023-04-11T16:56:18.125Z,14.05
2023-04-11T16:58:47.003Z,13.65
2023-04-11T17:01:15.320Z,13.29
2023-04-11T17:03:43.977Z,12.95
2023-04-11T17:06:15.078Z,12.58
2023-04-11T17:08:44.650Z,12.22
2023-04-11T17:11:13.723Z,11.95
2023-04-11T17:13:45.584Z,11.69
2023-04-11T17:16:13.947Z,11.44
2023-04-11T17:18:42.656Z,11.21
2023-04-11T17:21:11.571Z,11.01
2023-04-11T17:23:43.502Z,10.83
2023-04-11T17:26:14.439Z,10.68
2023-04-11T17:28:42.792Z,10.58
2023-04-11T17:31:15.766Z,10.46
2023-04-11T17:33:44.989Z,10.38
2023-04-11T17:36:13.990Z,10.30
2023-04-11T17:38:43.787Z,10.20
2023-04-11T17:41:15.461Z,10.09
2023-04-11T17:43:44.890Z,10.00
2023-04-11T17:46:13.884Z,9.96
2023-04-11T17:48:42.402Z,9.90
2023-04-11T17:51:11.120Z,9.87
2023-04-11T17:53:39.746Z,9.86
2023-04-11T17:56:08.350Z,9.87
2023-04-11T17:58:37.364Z,9.86
2023-04-11T18:01:09.150Z,9.82
2023-04-11T18:03:38.925Z,9.74
2023-04-11T18:06:08.216Z,9.70
2023-04-11T18:11:12.277Z,9.67
2023-04-11T18:13:42.885Z,9.58
2023-04-11T18:16:11.466Z,9.45
2023-04-11T18:18:40.294Z,9.36
2023-04-11T18:21:08.717Z,9.28
2023-04-11T18:23:38.259Z,9.23
2023-04-11T18:26:07.018Z,9.16
2023-04-11T18:28:35.137Z,9.10
2023-04-11T18:31:04.564Z,9.05
2023-04-11T18:33:42.111Z,9.00
2023-04-11T18:36:12.923Z,8.96
2023-04-11T18:38:41.528Z,8.92
2023-04-11T18:41:10.196Z,8.84
2023-04-11T18:43:39.064Z,8.75
2023-04-11T18:46:08.303Z,8.68
2023-04-11T18:48:36.979Z,8.66
2023-04-11T18:51:05.948Z,8.64
2023-04-11T18:53:37.053Z,8.60
2023-04-11T18:56:08.143Z,8.63
2023-04-11T18:58:39.954Z,8.64
2023-04-11T19:01:15.658Z,8.65
2023-04-11T19:03:46.477Z,8.62
2023-04-11T19:06:15.377Z,8.53
2023-04-11T19:08:43.525Z,8.48
2023-04-11T19:11:12.805Z,8.45
2023-04-11T19:13:41.239Z,8.42
2023-04-11T19:16:09.508Z,8.41
2023-04-11T19:18:38.722Z,8.38
2023-04-11T19:21:09.260Z,8.38
2023-04-11T19:23:37.669Z,8.36
2023-04-11T19:26:06.375Z,8.31
2023-04-11T19:28:35.885Z,8.25
2023-04-11T19:31:04.409Z,8.21
2023-04-11T19:33:33.269Z,8.18
2023-04-11T19:36:02.355Z,8.12
2023-04-11T19:38:30.716Z,8.07
2023-04-11T19:41:14.006Z,8.01
2023-04-11T19:43:43.417Z,7.97
2023-04-11T19:46:12.596Z,7.91
2023-04-11T19:48:41.801Z,7.87
2023-04-11T19:51:11.054Z,7.87
2023-04-11T19:53:40.150Z,7.86
2023-04-11T19:56:10.912Z,7.84
2023-04-11T19:58:39.961Z,7.83
2023-04-11T20:01:09.829Z,7.81
2023-04-11T20:03:39.412Z,7.77
2023-04-11T20:06:07.927Z,7.75
2023-04-11T20:08:38.148Z,7.73
2023-04-11T20:11:06.729Z,7.71
2023-04-11T20:13:36.041Z,7.71
2023-04-11T20:16:08.401Z,7.70
2023-04-11T20:18:36.519Z,7.69
2023-04-11T20:21:07.721Z,7.69
2023-04-11T20:23:37.290Z,7.70
2023-04-11T20:26:05.535Z,7.71
2023-04-11T20:28:33.645Z,7.70
2023-04-11T20:31:04.628Z,7.71
2023-04-11T20:33:33.037Z,7.76
2023-04-11T20:36:03.339Z,7.78
2023-04-11T20:38:32.100Z,7.77
2023-04-11T20:41:03.818Z,7.76
2023-04-11T20:43:32.157Z,7.74
2023-04-11T20:46:00.416Z,7.74
2023-04-11T20:48:30.195Z,7.71
2023-04-11T20:51:02.405Z,7.69
2023-04-11T20:53:30.634Z,7.68
2023-04-11T20:55:58.758Z,7.66
2023-04-11T20:58:27.041Z,7.65
2023-04-11T21:00:55.401Z,7.64
2023-04-11T21:03:24.088Z,7.65
2023-04-11T21:05:52.453Z,7.65
2023-04-11T21:08:20.788Z,7.64
2023-04-11T21:10:48.916Z,7.63
2023-04-11T21:13:17.117Z,7.61
2023-04-11T21:15:46.086Z,7.62
2023-04-11T21:18:14.371Z,7.65
2023-04-11T21:20:42.622Z,7.68
2023-04-11T21:23:11.091Z,7.72
2023-04-11T21:25:39.534Z,7.75
2023-04-11T21:28:07.697Z,7.78
2023-04-11T21:30:36.076Z,7.78
2023-04-11T21:33:04.278Z,7.77
2023-04-11T21:35:32.483Z,7.75
2023-04-11T21:38:00.971Z,7.74
2023-04-11T21:40:29.543Z,7.74
2023-04-11T21:42:57.902Z,7.75
2023-04-11T21:45:26.206Z,7.79
2023-04-11T21:47:54.574Z,7.83
2023-04-11T21:50:22.976Z,7.90
2023-04-11T21:52:52.736Z,7.94
2023-04-11T21:55:20.834Z,7.94
2023-04-11T21:57:48.939Z,7.94
2023-04-11T22:00:18.296Z,7.95
2023-04-11T22:02:46.503Z,7.97
2023-04-11T22:05:17.430Z,7.98
2023-04-11T22:07:48.769Z,7.99
2023-04-11T22:10:23.816Z,7.98
2023-04-11T22:12:54.462Z,7.97
2023-04-11T22:15:24.570Z,7.98
2023-04-11T22:17:54.472Z,8.04
2023-04-11T22:20:22.922Z,8.08
2023-04-11T22:22:51.241Z,8.07
2023-04-11T22:25:22.288Z,8.05
2023-04-11T22:27:54.712Z,8.04
2023-04-11T22:30:24.480Z,8.02
2023-04-11T22:32:54.428Z,8.00
2023-04-11T22:35:25.984Z,7.99
2023-04-11T22:37:57.194Z,8.00
2023-04-11T22:40:25.511Z,8.00
2023-04-11T22:42:54.142Z,7.97
2023-04-11T22:45:23.395Z,7.96
2023-04-11T23:13:30.680Z,8.24
2023-04-11T23:16:02.512Z,8.44
2023-04-11T23:18:30.681Z,8.45
2023-04-11T23:20:58.882Z,8.39
2023-04-11T23:23:27.902Z,8.32
2023-04-11T23:25:56.483Z,8.26
2023-04-11T23:28:25.446Z,8.20
2023-04-11T23:31:50.506Z,8.19
2023-04-11T23:34:37.675Z,8.25
2023-04-11T23:37:05.934Z,8.27
2023-04-11T23:39:34.085Z,8.26
2023-04-11T23:42:02.825Z,8.19
2023-04-11T23:44:31.406Z,8.15
2023-04-11T23:47:00.217Z,8.12
2023-04-11T23:49:28.538Z,8.07
2023-04-11T23:51:56.973Z,8.02
2023-04-11T23:54:30.058Z,7.97
2023-04-11T23:56:58.864Z,7.95
2023-04-11T23:59:27.175Z,7.98
